Terminal Aerodrome Forecast
Issued by NWS Billings, MT

Current Version | Previous Version | Text Only | Print | Product List | Glossary On
Versions: 1 2 3 4 5 6 7 8 9 10 11 12 13 14 15 16 17 18 19 20 21 22 23 24 25 26 27 28 29 30
978
FTUS45 KBYZ 090531
TAFSHR
TAF
KSHR 090531Z 0906/1006 28007KT P6SM SCT250 WS008/31035KT
     FM091800 31010G20KT P6SM SCT250
     FM100100 VRB03KT P6SM SCT250=

USA.gov is the U.S. government's official web portal to all federal, state and local government web resources and services.